Terminal Aerodrome Forecast
Issued by NWS

Home | Current Version | Previous Version | Text Only | Print | Product List | Glossary On
Versions: 1 2 3 4 5 6 7 8 9 10 11 12 13 14 15
818
FTUS43 KMPX 191732
TAFRNH
TAF
KRNH 191732Z 1918/2018 30013G20KT P6SM VCSH BKN050
     FM200000 28007KT P6SM FEW120
     FM200700 VRB03KT P6SM VCSH SCT050 BKN090
     FM201200 29006KT P6SM FEW050=

USA.gov is the U.S. government's official web portal to all federal, state and local government web resources and services.